Time;durP1;ratioP1;P1;durP2;ratioP2;P2;SDS_P1;SDS_P2;PMS_P1;PMS_P2;Temp;Humidity;BMP_temperature;BMP_pressure;BME280_temperature;BME280_humidity;BME280_pressure;Samples;Min_cycle;Max_cycle;Signal;HPM_P1;HPM_P2
2023/09/26 00:01:37;;;;;;;2.97;2.28;;;16.90;99.90;;;;;;4232489;28;20046;-81
2023/09/26 00:03:40;;;;;;;5.53;2.35;;;17.00;99.90;;;;;;4214423;28;20151;-82
2023/09/26 00:05:41;;;;;;;4.50;2.92;;;17.00;99.90;;;;;;4232103;28;20059;-82
2023/09/26 00:07:42;;;;;;;4.68;2.65;;;17.00;99.90;;;;;;4231572;27;20491;-81
2023/09/26 00:09:43;;;;;;;5.22;2.45;;;17.00;99.90;;;;;;4232358;28;20146;-81
2023/09/26 00:11:45;;;;;;;4.75;2.58;;;17.00;99.90;;;;;;4230890;28;20402;-82
2023/09/26 00:13:48;;;;;;;8.38;3.53;;;17.00;99.90;;;;;;4231410;28;20044;-81
2023/09/26 00:15:49;;;;;;;4.70;2.63;;;17.00;99.90;;;;;;4231277;28;20039;-81
2023/09/26 00:17:50;;;;;;;7.05;3.47;;;16.90;99.90;;;;;;4213662;28;20055;-82
2023/09/26 00:19:51;;;;;;;7.38;2.58;;;17.00;99.90;;;;;;4230938;28;20043;-81
2023/09/26 00:21:52;;;;;;;8.82;3.60;;;16.80;99.90;;;;;;4214086;28;20124;-81
2023/09/26 00:23:52;;;;;;;7.35;2.92;;;16.80;99.90;;;;;;4213684;28;20408;-81
2023/09/26 00:25:53;;;;;;;6.68;2.55;;;16.70;99.90;;;;;;4213633;28;20494;-81
2023/09/26 00:27:54;;;;;;;4.15;2.95;;;16.70;99.90;;;;;;4231850;28;20483;-81
2023/09/26 00:29:55;;;;;;;6.00;2.88;;;16.70;99.90;;;;;;4229617;28;20047;-82
2023/09/26 00:31:55;;;;;;;10.00;3.80;;;16.70;99.90;;;;;;4197187;28;20051;-82
2023/09/26 00:33:56;;;;;;;6.85;2.60;;;16.60;99.90;;;;;;4231726;28;20372;-81
2023/09/26 00:36:00;;;;;;;7.85;3.53;;;16.50;99.90;;;;;;4231945;28;20430;-81
2023/09/26 00:38:01;;;;;;;6.80;2.47;;;16.60;99.90;;;;;;4213598;28;20044;-81
2023/09/26 00:40:02;;;;;;;6.32;2.95;;;16.50;99.90;;;;;;4196672;28;20481;-81
2023/09/26 00:42:03;;;;;;;6.55;2.90;;;16.50;99.90;;;;;;4231229;28;20039;-81
2023/09/26 00:44:06;;;;;;;6.65;2.65;;;16.50;99.90;;;;;;4231759;28;20040;-81
2023/09/26 00:46:08;;;;;;;5.72;2.47;;;16.50;99.90;;;;;;4199573;28;20488;-81
2023/09/26 00:48:09;;;;;;;5.07;2.60;;;16.40;99.90;;;;;;4192185;28;20041;-81
2023/09/26 00:50:13;;;;;;;6.60;3.30;;;16.40;99.90;;;;;;4191193;28;1147358;-81
2023/09/26 00:52:14;;;;;;;4.88;2.55;;;16.30;99.90;;;;;;4232138;28;20561;-81
2023/09/26 00:54:15;;;;;;;5.65;2.40;;;16.30;99.90;;;;;;4231239;28;20047;-81
2023/09/26 00:56:17;;;;;;;6.25;3.00;;;16.20;99.90;;;;;;4232227;28;20130;-81
2023/09/26 00:58:18;;;;;;;7.47;2.95;;;16.20;99.90;;;;;;4232528;28;20082;-81
2023/09/26 01:00:20;;;;;;;7.28;2.75;;;16.20;99.90;;;;;;4232091;28;20048;-81
2023/09/26 01:02:22;;;;;;;5.90;3.25;;;16.30;99.90;;;;;;4232439;28;20505;-81
2023/09/26 01:04:23;;;;;;;3.90;2.58;;;16.10;99.90;;;;;;4213585;28;20119;-81
2023/09/26 01:06:25;;;;;;;7.03;3.20;;;16.30;99.90;;;;;;4231588;28;20044;-81
2023/09/26 01:08:25;;;;;;;6.88;3.40;;;16.10;99.90;;;;;;4228679;28;20110;-81
2023/09/26 01:10:26;;;;;;;5.63;2.80;;;16.10;99.90;;;;;;4214234;28;20044;-81
2023/09/26 01:12:28;;;;;;;4.28;3.00;;;16.10;99.90;;;;;;4232004;28;20043;-81
2023/09/26 01:14:28;;;;;;;5.57;3.25;;;16.10;99.90;;;;;;4231694;28;20096;-81
2023/09/26 01:16:29;;;;;;;6.90;3.60;;;16.10;99.90;;;;;;4214152;28;20472;-81
2023/09/26 01:18:30;;;;;;;4.28;3.28;;;16.00;99.90;;;;;;4232316;28;20058;-81
2023/09/26 01:20:31;;;;;;;5.05;3.22;;;16.00;99.90;;;;;;4231038;28;20054;-81
2023/09/26 01:22:33;;;;;;;9.32;3.53;;;16.00;99.90;;;;;;4213796;28;20051;-81
2023/09/26 01:24:37;;;;;;;5.10;3.10;;;15.90;99.90;;;;;;4232119;28;20086;-81
2023/09/26 01:26:38;;;;;;;3.70;2.90;;;15.90;99.90;;;;;;4211171;28;20048;-81
2023/09/26 01:28:39;;;;;;;3.72;2.45;;;16.00;99.90;;;;;;4213645;28;20044;-82
2023/09/26 01:30:41;;;;;;;6.22;3.22;;;15.90;99.90;;;;;;4231673;28;20058;-82
2023/09/26 01:32:41;;;;;;;7.68;3.38;;;15.90;99.90;;;;;;4231929;28;20380;-82
2023/09/26 01:34:42;;;;;;;5.07;3.60;;;15.90;99.90;;;;;;4231913;28;20088;-82
2023/09/26 01:36:43;;;;;;;6.28;3.00;;;15.80;99.90;;;;;;4231852;28;20047;-81
2023/09/26 01:38:43;;;;;;;6.38;3.22;;;15.90;99.90;;;;;;4231573;28;20092;-82
2023/09/26 01:40:45;;;;;;;5.90;3.50;;;15.90;99.90;;;;;;4231231;28;20445;-82
2023/09/26 01:42:45;;;;;;;4.85;3.17;;;15.80;99.90;;;;;;4229905;28;20091;-81
2023/09/26 01:44:46;;;;;;;6.00;3.40;;;15.80;99.90;;;;;;4231676;28;20112;-82
2023/09/26 01:46:47;;;;;;;7.85;3.38;;;14.60;99.90;;;;;;4231729;28;20047;-81
2023/09/26 01:48:48;;;;;;;7.22;3.13;;;15.80;99.90;;;;;;4231354;28;20055;-81
2023/09/26 01:50:49;;;;;;;5.43;3.55;;;15.70;99.90;;;;;;4231259;28;20051;-81
2023/09/26 01:52:50;;;;;;;6.40;3.58;;;15.70;99.90;;;;;;4231567;28;20039;-81
2023/09/26 01:54:51;;;;;;;7.07;3.17;;;15.70;99.90;;;;;;4231673;28;20036;-81
2023/09/26 01:56:51;;;;;;;8.27;3.13;;;15.70;99.90;;;;;;4231166;28;20479;-80
2023/09/26 01:58:52;;;;;;;7.07;3.70;;;15.90;99.90;;;;;;4231440;28;20042;-81
2023/09/26 02:00:53;;;;;;;7.38;3.25;;;15.70;99.90;;;;;;4231055;28;20556;-81
2023/09/26 02:02:54;;;;;;;6.43;3.00;;;15.60;99.90;;;;;;4229876;28;20388;-81
2023/09/26 02:04:55;;;;;;;7.55;3.90;;;15.60;99.90;;;;;;4231494;28;20058;-81
2023/09/26 02:06:55;;;;;;;5.93;3.42;;;15.80;99.90;;;;;;4231310;28;20043;-81
2023/09/26 02:08:56;;;;;;;7.43;3.35;;;15.60;99.90;;;;;;4231009;28;20495;-81
2023/09/26 02:10:57;;;;;;;4.75;3.55;;;15.60;99.90;;;;;;4231150;28;20047;-81
2023/09/26 02:12:58;;;;;;;7.35;3.28;;;15.60;99.90;;;;;;4231178;28;20491;-81
2023/09/26 02:15:01;;;;;;;4.15;2.70;;;15.60;99.90;;;;;;4231323;28;20395;-81
2023/09/26 02:17:01;;;;;;;7.72;3.33;;;15.60;99.90;;;;;;4231029;28;20542;-82
2023/09/26 02:19:02;;;;;;;6.47;3.47;;;15.60;99.90;;;;;;4210559;28;20040;-81
2023/09/26 02:21:03;;;;;;;9.52;3.47;;;15.60;99.90;;;;;;4212723;28;20161;-81
2023/09/26 02:23:04;;;;;;;4.93;3.47;;;15.50;99.90;;;;;;4231305;28;20040;-81
2023/09/26 02:25:05;;;;;;;6.13;3.55;;;15.50;99.90;;;;;;4230949;28;20048;-81
2023/09/26 02:27:06;;;;;;;5.38;3.35;;;15.40;99.90;;;;;;4231143;28;20423;-81
2023/09/26 02:29:07;;;;;;;4.35;3.38;;;15.40;99.90;;;;;;4231017;28;20043;-82
2023/09/26 02:31:14;;;;;;;6.93;3.40;;;15.40;99.90;;;;;;4230373;28;20051;-81
2023/09/26 02:33:15;;;;;;;5.55;3.78;;;15.40;99.90;;;;;;4231070;28;20043;-81
2023/09/26 02:35:19;;;;;;;6.85;3.55;;;15.40;99.90;;;;;;4231149;28;20104;-81
2023/09/26 02:37:20;;;;;;;9.98;4.70;;;15.30;99.90;;;;;;4228457;28;20115;-81
2023/09/26 02:39:20;;;;;;;7.93;3.05;;;15.30;99.90;;;;;;4230793;28;20361;-81
2023/09/26 02:41:21;;;;;;;8.02;4.18;;;15.30;99.90;;;;;;4230687;28;20047;-81
2023/09/26 02:43:22;;;;;;;5.65;4.38;;;15.30;99.90;;;;;;4231071;28;20075;-81
2023/09/26 02:45:23;;;;;;;8.40;5.18;;;15.20;99.90;;;;;;4230732;28;20403;-82
2023/09/26 02:47:23;;;;;;;5.63;3.50;;;15.20;99.90;;;;;;4216984;28;20408;-82
2023/09/26 02:49:24;;;;;;;6.20;3.92;;;15.20;99.90;;;;;;4214004;28;20457;-81
2023/09/26 02:51:25;;;;;;;6.78;4.20;;;15.20;99.90;;;;;;4214122;28;20421;-81
2023/09/26 02:53:26;;;;;;;9.20;4.53;;;15.10;99.90;;;;;;4196265;28;20508;-81
2023/09/26 02:55:26;;;;;;;7.75;4.07;;;15.10;99.90;;;;;;4213445;28;20054;-81
2023/09/26 02:57:27;;;;;;;8.13;4.80;;;15.10;99.90;;;;;;4227721;28;20411;-81
2023/09/26 02:59:29;;;;;;;9.05;5.07;;;15.00;99.90;;;;;;4230800;28;20365;-81
2023/09/26 03:01:29;;;;;;;7.28;4.65;;;15.00;99.90;;;;;;4212902;28;20040;-81
2023/09/26 03:03:30;;;;;;;8.98;5.45;;;15.00;99.90;;;;;;4230868;28;20044;-81
2023/09/26 03:05:31;;;;;;;10.13;5.32;;;14.90;99.90;;;;;;4230953;28;20039;-81
2023/09/26 03:07:32;;;;;;;8.63;5.00;;;14.90;99.90;;;;;;4212231;28;20047;-81
2023/09/26 03:09:32;;;;;;;10.38;5.90;;;14.80;99.90;;;;;;4219290;28;20476;-81
2023/09/26 03:11:33;;;;;;;9.98;5.63;;;14.80;99.90;;;;;;4224169;28;20044;-81
2023/09/26 03:13:34;;;;;;;11.82;5.72;;;14.70;99.90;;;;;;4226466;28;20457;-82
2023/09/26 03:15:35;;;;;;;9.18;5.57;;;14.70;99.90;;;;;;4220079;28;20074;-82
2023/09/26 03:17:35;;;;;;;8.90;5.15;;;14.70;99.90;;;;;;4213917;28;20157;-81
2023/09/26 03:19:36;;;;;;;7.30;5.97;;;14.70;99.90;;;;;;4213445;28;20040;-81
2023/09/26 03:21:37;;;;;;;11.80;5.82;;;14.70;99.90;;;;;;4213551;28;20048;-82
2023/09/26 03:23:38;;;;;;;10.95;6.10;;;14.70;99.90;;;;;;4213915;28;20052;-82
2023/09/26 03:25:38;;;;;;;8.68;5.35;;;14.80;99.90;;;;;;4213748;28;20050;-82
2023/09/26 03:27:39;;;;;;;12.70;6.03;;;14.70;99.90;;;;;;4195735;28;20043;-82
2023/09/26 03:29:40;;;;;;;10.68;6.07;;;14.70;99.90;;;;;;4216664;28;20063;-82
2023/09/26 03:31:41;;;;;;;8.98;5.40;;;14.60;99.90;;;;;;4229742;28;20031;-82
2023/09/26 03:33:42;;;;;;;10.07;6.22;;;14.50;99.90;;;;;;4195615;28;20135;-81
2023/09/26 03:35:42;;;;;;;11.15;6.10;;;14.60;99.90;;;;;;4206059;28;20058;-81
2023/09/26 03:37:43;;;;;;;11.43;6.10;;;14.60;99.90;;;;;;4229407;28;20075;-81
2023/09/26 03:39:47;;;;;;;9.38;5.95;;;14.60;99.90;;;;;;4230554;28;20123;-82
2023/09/26 03:41:48;;;;;;;8.35;5.72;;;14.60;99.90;;;;;;4230010;28;20062;-81
2023/09/26 03:43:48;;;;;;;11.68;6.40;;;14.60;99.90;;;;;;4232811;28;20048;-81
2023/09/26 03:45:49;;;;;;;12.73;6.45;;;14.60;99.90;;;;;;4233555;28;20127;-80
2023/09/26 03:47:50;;;;;;;9.75;6.57;;;14.30;99.90;;;;;;4233492;28;20044;-82
2023/09/26 03:49:55;;;;;;;13.75;6.10;;;14.50;99.90;;;;;;4231234;28;20043;-82
2023/09/26 03:51:56;;;;;;;8.32;5.80;;;14.50;99.90;;;;;;4215573;28;20048;-82
2023/09/26 03:53:57;;;;;;;10.57;6.10;;;14.50;99.90;;;;;;4232782;28;20040;-80
2023/09/26 03:55:58;;;;;;;7.57;5.63;;;14.40;99.90;;;;;;4233519;28;20483;-81
2023/09/26 03:57:58;;;;;;;8.52;6.28;;;15.70;99.90;;;;;;4233470;28;20043;-81
2023/09/26 04:00:00;;;;;;;10.00;6.32;;;14.50;99.90;;;;;;4233407;28;20062;-82
2023/09/26 04:02:01;;;;;;;10.73;6.35;;;14.50;99.90;;;;;;4233519;28;20054;-81
2023/09/26 04:04:02;;;;;;;9.10;6.53;;;14.40;99.90;;;;;;4233664;28;20484;-82
2023/09/26 04:06:03;;;;;;;12.73;6.47;;;14.50;99.90;;;;;;4231195;28;20051;-81
2023/09/26 04:08:04;;;;;;;9.95;6.05;;;14.40;99.90;;;;;;4198583;28;20504;-81
2023/09/26 04:10:08;;;;;;;11.55;6.90;;;14.40;99.90;;;;;;4215040;28;20044;-82
2023/09/26 04:12:09;;;;;;;9.93;6.88;;;14.40;99.90;;;;;;4233483;28;20047;-82
2023/09/26 04:14:09;;;;;;;10.80;6.93;;;14.30;99.90;;;;;;4232915;28;20050;-82
2023/09/26 04:16:11;;;;;;;10.02;6.60;;;14.30;99.90;;;;;;4233108;28;20047;-83
2023/09/26 04:18:12;;;;;;;11.13;6.47;;;14.30;99.90;;;;;;4233007;28;20044;-81
2023/09/26 04:20:13;;;;;;;11.52;6.85;;;14.20;99.90;;;;;;4233109;28;20479;-81
2023/09/26 04:22:13;;;;;;;11.43;7.18;;;14.30;99.90;;;;;;4230894;28;20050;-81
2023/09/26 04:24:15;;;;;;;10.50;6.57;;;14.20;99.90;;;;;;4232629;28;20549;-81
2023/09/26 04:26:17;;;;;;;12.02;6.90;;;14.20;99.90;;;;;;4232853;28;20492;-82
2023/09/26 04:28:18;;;;;;;9.25;6.50;;;14.20;99.90;;;;;;4233219;28;20048;-82
2023/09/26 04:30:19;;;;;;;10.68;7.13;;;14.40;99.90;;;;;;4217395;28;20122;-81
2023/09/26 04:32:19;;;;;;;10.68;7.32;;;14.20;99.90;;;;;;4215769;28;20424;-81
2023/09/26 04:34:21;;;;;;;11.63;7.05;;;14.20;99.90;;;;;;4215458;28;20048;-81
2023/09/26 04:36:22;;;;;;;15.93;6.63;;;14.20;99.90;;;;;;4216109;28;20036;-81
2023/09/26 04:38:23;;;;;;;8.70;6.25;;;14.20;99.90;;;;;;4216124;28;20044;-81
2023/09/26 04:40:24;;;;;;;12.02;7.10;;;14.20;99.90;;;;;;4215944;28;20086;-81
2023/09/26 04:42:25;;;;;;;10.13;6.82;;;14.20;99.90;;;;;;4221915;28;20039;-81
2023/09/26 04:44:26;;;;;;;11.45;7.40;;;14.20;99.90;;;;;;4232859;28;20047;-81
2023/09/26 04:46:26;;;;;;;10.82;7.28;;;14.20;99.90;;;;;;4233250;28;20669;-81
2023/09/26 04:48:27;;;;;;;9.95;7.05;;;14.20;99.90;;;;;;4215194;28;20094;-81
2023/09/26 04:50:29;;;;;;;12.82;6.75;;;14.20;99.90;;;;;;4214776;28;20056;-80
2023/09/26 04:52:30;;;;;;;12.10;7.97;;;14.20;99.90;;;;;;4232885;28;20500;-81
2023/09/26 04:54:31;;;;;;;10.95;7.03;;;14.20;99.90;;;;;;4231383;28;20040;-81
2023/09/26 04:56:32;;;;;;;14.57;7.22;;;14.20;99.90;;;;;;4232502;28;20399;-81
2023/09/26 04:58:33;;;;;;;12.60;7.80;;;14.20;99.90;;;;;;4230747;28;20437;-81
2023/09/26 05:00:35;;;;;;;12.23;7.43;;;14.10;99.90;;;;;;4226947;28;20400;-81
2023/09/26 05:02:35;;;;;;;13.13;7.85;;;14.20;99.90;;;;;;4234403;28;20103;-81
2023/09/26 05:04:36;;;;;;;12.23;7.78;;;14.20;99.90;;;;;;4227114;28;20071;-81
2023/09/26 05:06:37;;;;;;;12.13;7.72;;;14.20;99.90;;;;;;4221663;28;20377;-82
2023/09/26 05:08:39;;;;;;;12.48;8.25;;;14.40;99.90;;;;;;4232403;28;20403;-82
2023/09/26 05:10:40;;;;;;;15.20;8.27;;;14.20;99.90;;;;;;4232047;28;20043;-82
2023/09/26 05:12:40;;;;;;;18.70;8.23;;;14.20;99.90;;;;;;4232520;28;20411;-82
2023/09/26 05:14:42;;;;;;;12.85;8.23;;;14.40;99.90;;;;;;4232327;28;20125;-82
2023/09/26 05:16:43;;;;;;;13.05;7.75;;;14.20;99.90;;;;;;4230165;27;20052;-82
2023/09/26 05:18:44;;;;;;;11.88;8.35;;;14.10;99.90;;;;;;4229797;28;20400;-82
2023/09/26 05:20:44;;;;;;;16.90;8.75;;;14.10;99.90;;;;;;4214097;28;20048;-82
2023/09/26 05:22:48;;;;;;;12.18;7.13;;;14.10;99.90;;;;;;4227137;28;20048;-82
2023/09/26 05:24:50;;;;;;;12.52;7.68;;;14.10;99.90;;;;;;4226647;28;20067;-82
2023/09/26 05:26:52;;;;;;;15.70;8.65;;;14.00;99.90;;;;;;4213189;28;20048;-81
2023/09/26 05:28:53;;;;;;;12.60;8.55;;;14.00;99.90;;;;;;4228719;28;20055;-82
2023/09/26 05:30:54;;;;;;;13.88;8.38;;;14.00;99.90;;;;;;4217121;28;20404;-82
2023/09/26 05:32:54;;;;;;;13.43;8.05;;;13.90;99.90;;;;;;4216672;28;20396;-81
2023/09/26 05:34:55;;;;;;;16.40;8.05;;;13.90;99.90;;;;;;4197697;28;20505;-81
2023/09/26 05:36:56;;;;;;;16.38;8.57;;;13.90;99.90;;;;;;4230391;28;20059;-81
2023/09/26 05:38:57;;;;;;;13.65;8.23;;;13.80;99.90;;;;;;4232806;28;20043;-81
2023/09/26 05:40:58;;;;;;;15.73;8.20;;;13.80;99.90;;;;;;4232857;28;20050;-82
2023/09/26 05:42:58;;;;;;;15.18;8.88;;;13.80;99.90;;;;;;4222877;28;20400;-82
2023/09/26 05:44:59;;;;;;;17.95;9.70;;;13.80;99.90;;;;;;4205780;28;20130;-81
2023/09/26 05:47:00;;;;;;;14.55;8.38;;;13.80;99.90;;;;;;4215547;28;20044;-82
2023/09/26 05:49:01;;;;;;;15.93;8.65;;;13.80;99.90;;;;;;4223632;28;20456;-82
2023/09/26 05:51:03;;;;;;;14.13;7.45;;;13.80;99.90;;;;;;4230302;28;20059;-82
2023/09/26 05:53:04;;;;;;;14.43;7.88;;;13.80;99.90;;;;;;4210476;28;20419;-82
2023/09/26 05:55:05;;;;;;;13.20;8.57;;;13.70;99.90;;;;;;4231960;28;20035;-82
2023/09/26 05:57:07;;;;;;;14.30;8.50;;;13.90;99.90;;;;;;4231724;28;20036;-82
2023/09/26 05:59:08;;;;;;;11.82;7.82;;;13.80;99.90;;;;;;4231656;28;20391;-81
2023/09/26 06:01:09;;;;;;;15.90;8.30;;;13.80;99.90;;;;;;4231004;28;20043;-82
2023/09/26 06:03:11;;;;;;;24.52;9.40;;;14.10;99.90;;;;;;4213004;28;20039;-82
2023/09/26 06:05:11;;;;;;;12.18;8.00;;;13.70;99.90;;;;;;4230785;28;20134;-82
2023/09/26 06:07:13;;;;;;;12.85;7.85;;;13.70;99.90;;;;;;4213428;28;20530;-82
2023/09/26 06:09:15;;;;;;;15.18;8.27;;;13.70;99.90;;;;;;4228845;28;20075;-82
2023/09/26 06:11:18;;;;;;;12.63;7.53;;;13.70;99.90;;;;;;4231318;28;20097;-82
2023/09/26 06:13:19;;;;;;;12.98;7.82;;;13.70;99.90;;;;;;4231374;28;20465;-82
2023/09/26 06:15:20;;;;;;;14.65;7.72;;;13.80;99.90;;;;;;4231534;28;20039;-82
2023/09/26 06:17:21;;;;;;;10.75;7.55;;;13.90;99.90;;;;;;4231313;28;20039;-82
2023/09/26 06:19:21;;;;;;;13.32;9.00;;;13.80;99.90;;;;;;4230721;28;20484;-81
2023/09/26 06:21:22;;;;;;;15.80;7.80;;;13.80;99.90;;;;;;4231226;28;20438;-82
2023/09/26 06:23:23;;;;;;;14.65;7.53;;;13.90;99.90;;;;;;4231332;28;20082;-82
2023/09/26 06:25:24;;;;;;;12.52;8.07;;;13.90;99.90;;;;;;4231313;28;20044;-81
2023/09/26 06:27:26;;;;;;;14.77;8.88;;;13.80;99.90;;;;;;4230470;28;20039;-81
2023/09/26 06:29:26;;;;;;;11.07;7.35;;;13.90;99.90;;;;;;4228703;28;20092;-81
2023/09/26 06:31:27;;;;;;;11.73;7.15;;;13.90;99.90;;;;;;4230997;28;20112;-81
2023/09/26 06:33:29;;;;;;;12.25;8.10;;;13.90;99.90;;;;;;4230772;28;20046;-81
2023/09/26 06:35:31;;;;;;;13.88;8.02;;;14.00;99.90;;;;;;4231064;28;20536;-81
2023/09/26 06:37:32;;;;;;;10.20;7.30;;;13.90;99.90;;;;;;4230935;28;20256;-81
2023/09/26 06:39:33;;;;;;;14.40;8.82;;;14.00;99.90;;;;;;4230661;28;20048;-81
2023/09/26 06:41:34;;;;;;;12.35;7.15;;;14.00;99.90;;;;;;4230784;28;20043;-81
2023/09/26 06:43:37;;;;;;;14.18;8.48;;;14.00;99.90;;;;;;4230660;28;20430;-81
2023/09/26 06:45:39;;;;;;;11.48;6.57;;;13.00;99.90;;;;;;4228498;28;20039;-81
2023/09/26 06:47:39;;;;;;;11.93;7.15;;;14.00;99.90;;;;;;4230543;28;20039;-81
2023/09/26 06:49:40;;;;;;;12.48;7.35;;;14.00;99.90;;;;;;4231155;28;20058;-81
2023/09/26 06:51:41;;;;;;;12.43;7.03;;;14.20;99.90;;;;;;4231040;28;20514;-82
2023/09/26 06:53:42;;;;;;;13.82;7.28;;;14.10;99.90;;;;;;4231103;28;20039;-81
2023/09/26 06:55:43;;;;;;;9.32;6.78;;;15.10;99.90;;;;;;4212609;28;20044;-81
2023/09/26 06:57:44;;;;;;;12.80;7.43;;;14.20;99.90;;;;;;4227242;28;20381;-81
2023/09/26 06:59:51;;;;;;;13.60;6.68;;;14.20;99.90;;;;;;4230202;28;20078;-81
2023/09/26 07:01:52;;;;;;;11.20;6.88;;;14.30;99.90;;;;;;4231158;28;20035;-81
2023/09/26 07:03:52;;;;;;;11.15;6.45;;;14.30;99.90;;;;;;4230670;28;20051;-81
2023/09/26 07:05:54;;;;;;;10.65;7.10;;;14.30;99.90;;;;;;4230925;28;20103;-81
2023/09/26 07:07:56;;;;;;;12.10;7.63;;;14.30;99.90;;;;;;4212544;28;20046;-80
2023/09/26 07:09:58;;;;;;;13.38;7.43;;;14.40;99.90;;;;;;4230558;28;20114;-81
2023/09/26 07:11:59;;;;;;;16.48;7.35;;;14.40;99.90;;;;;;4230980;28;20058;-80
2023/09/26 07:13:59;;;;;;;13.35;7.53;;;14.50;99.90;;;;;;4234624;28;20122;-84
2023/09/26 07:16:03;;;;;;;10.85;6.40;;;15.00;99.90;;;;;;4243808;28;20040;-82
2023/09/26 07:18:06;;;;;;;10.20;6.72;;;14.50;99.90;;;;;;4245738;28;20043;-81
2023/09/26 07:20:13;;;;;;;10.75;6.50;;;14.60;99.90;;;;;;4242126;28;20098;-82
2023/09/26 07:22:13;;;;;;;13.45;6.38;;;14.70;99.90;;;;;;4235694;28;20047;-80
2023/09/26 07:24:14;;;;;;;9.18;5.70;;;14.70;99.90;;;;;;4233066;28;20432;-82
2023/09/26 07:26:16;;;;;;;11.52;6.68;;;14.80;99.90;;;;;;4240132;28;20480;-80
2023/09/26 07:28:17;;;;;;;13.63;5.93;;;14.90;99.90;;;;;;4199817;28;20858;-81
2023/09/26 07:30:18;;;;;;;12.35;6.30;;;14.90;99.90;;;;;;4233884;28;20046;-82
2023/09/26 07:32:19;;;;;;;11.95;6.25;;;15.00;99.90;;;;;;4235443;28;20694;-82
2023/09/26 07:34:20;;;;;;;13.32;6.47;;;15.00;99.90;;;;;;4226517;28;20047;-82
2023/09/26 07:36:21;;;;;;;11.18;6.63;;;15.10;99.90;;;;;;4234167;28;20518;-82
2023/09/26 07:38:22;;;;;;;11.60;6.25;;;15.10;99.90;;;;;;4234647;28;20046;-83
2023/09/26 07:40:23;;;;;;;10.00;5.93;;;15.10;99.90;;;;;;4234741;28;20039;-82
2023/09/26 07:42:24;;;;;;;11.07;6.30;;;15.20;99.90;;;;;;4216379;28;20036;-82
2023/09/26 07:44:24;;;;;;;9.85;5.93;;;15.20;99.90;;;;;;4216408;28;20123;-81
2023/09/26 07:46:25;;;;;;;10.27;6.45;;;15.30;99.90;;;;;;4230713;28;20452;-81
2023/09/26 07:48:26;;;;;;;13.27;5.90;;;15.30;99.90;;;;;;4224528;28;20043;-80
2023/09/26 07:50:27;;;;;;;9.70;6.15;;;15.30;99.90;;;;;;4233675;28;20064;-80
2023/09/26 07:52:28;;;;;;;10.13;5.65;;;15.40;99.90;;;;;;4232693;28;20144;-79
2023/09/26 07:54:29;;;;;;;8.02;5.20;;;15.40;99.90;;;;;;4234168;28;20403;-79
2023/09/26 07:56:29;;;;;;;9.98;5.78;;;14.40;99.90;;;;;;4234051;28;20043;-79
2023/09/26 07:58:30;;;;;;;9.85;5.20;;;15.70;99.90;;;;;;4234279;28;20048;-80
2023/09/26 08:00:31;;;;;;;11.00;6.07;;;15.90;99.90;;;;;;4233237;28;20138;-80
2023/09/26 08:02:32;;;;;;;14.80;6.28;;;16.00;99.90;;;;;;4233614;28;20055;-79
2023/09/26 08:04:32;;;;;;;8.32;5.22;;;16.20;99.90;;;;;;4215397;28;20087;-80
2023/09/26 08:06:33;;;;;;;16.40;7.13;;;16.30;99.90;;;;;;4233485;28;20114;-80
2023/09/26 08:08:35;;;;;;;11.85;6.45;;;16.00;99.90;;;;;;4233484;28;20035;-79
2023/09/26 08:10:37;;;;;;;11.20;6.10;;;16.30;99.90;;;;;;4233423;28;20036;-80
2023/09/26 08:12:39;;;;;;;10.73;5.57;;;16.30;99.90;;;;;;4215192;28;20493;-80
2023/09/26 08:14:39;;;;;;;12.10;6.00;;;16.40;99.90;;;;;;4231615;28;20044;-80
2023/09/26 08:16:40;;;;;;;10.38;5.88;;;16.40;99.90;;;;;;4213477;28;20062;-80
2023/09/26 08:18:42;;;;;;;11.93;5.65;;;16.60;99.90;;;;;;4233439;28;20040;-80
2023/09/26 08:20:43;;;;;;;10.07;5.53;;;16.70;99.90;;;;;;4233341;28;20451;-80
2023/09/26 08:22:44;;;;;;;9.73;5.93;;;18.10;99.90;;;;;;4215550;28;20075;-80
2023/09/26 08:24:45;;;;;;;12.35;6.07;;;16.90;99.90;;;;;;4215867;28;20101;-81
2023/09/26 08:26:46;;;;;;;10.18;6.18;;;16.90;99.90;;;;;;4231335;28;20434;-81
2023/09/26 08:28:47;;;;;;;10.20;5.60;;;17.00;99.90;;;;;;4210895;28;20056;-81
2023/09/26 08:30:47;;;;;;;12.68;5.53;;;16.90;99.90;;;;;;4228719;28;20036;-81
2023/09/26 08:32:48;;;;;;;7.53;5.28;;;16.90;99.90;;;;;;4232374;28;20488;-80
2023/09/26 08:34:49;;;;;;;10.23;5.15;;;17.00;99.90;;;;;;4233265;28;20511;-81
2023/09/26 08:36:51;;;;;;;10.98;5.38;;;17.00;99.90;;;;;;4233199;28;20047;-80
2023/09/26 08:38:52;;;;;;;8.20;5.00;;;17.00;99.90;;;;;;4232835;28;20372;-81
2023/09/26 08:40:58;;;;;;;8.45;4.57;;;17.00;99.90;;;;;;4233039;28;20043;-80
2023/09/26 08:42:59;;;;;;;7.22;4.68;;;16.90;99.90;;;;;;4231815;28;20051;-80
2023/09/26 08:45:01;;;;;;;9.32;5.63;;;16.90;99.90;;;;;;4233025;28;20061;-80
2023/09/26 08:47:02;;;;;;;12.85;5.13;;;16.90;99.90;;;;;;4222273;27;20181;-80
2023/09/26 08:49:04;;;;;;;8.65;5.10;;;16.90;99.90;;;;;;4227319;28;20409;-79
2023/09/26 08:51:05;;;;;;;11.82;5.68;;;17.00;99.90;;;;;;4232097;28;20051;-80
2023/09/26 08:53:06;;;;;;;8.45;4.55;;;17.00;99.90;;;;;;4232609;28;20101;-80
2023/09/26 08:55:08;;;;;;;8.32;5.40;;;17.30;99.90;;;;;;4231699;28;20043;-80
2023/09/26 08:57:10;;;;;;;8.23;5.07;;;17.50;99.90;;;;;;4232590;28;20084;-80
2023/09/26 08:59:13;;;;;;;9.38;4.50;;;17.70;99.90;;;;;;4232564;28;20582;-79
2023/09/26 09:01:14;;;;;;;7.35;4.80;;;17.70;99.90;;;;;;4214719;28;20047;-79
2023/09/26 09:03:14;;;;;;;9.23;4.50;;;17.70;99.90;;;;;;4232728;28;20035;-80
2023/09/26 09:05:20;;;;;;;6.60;4.30;;;17.60;99.90;;;;;;4231264;28;20108;-79
2023/09/26 09:07:22;;;;;;;10.88;4.47;;;17.60;99.90;;;;;;4232214;28;20055;-79
2023/09/26 09:09:22;;;;;;;10.70;5.15;;;17.60;99.90;;;;;;4213059;28;20115;-81
2023/09/26 09:11:33;;;;;;;6.90;3.88;;;17.60;99.90;;;;;;4230911;28;20164;-79
2023/09/26 09:13:37;;;;;;;8.90;5.10;;;17.90;99.90;;;;;;4214240;28;20058;-80
2023/09/26 09:15:39;;;;;;;8.88;4.50;;;18.30;99.90;;;;;;4230722;28;20040;-82
2023/09/26 09:17:42;;;;;;;8.25;4.30;;;18.60;99.90;;;;;;4213871;28;20043;-79
2023/09/26 09:19:47;;;;;;;8.63;5.18;;;18.90;99.90;;;;;;4214345;28;20480;-79
2023/09/26 09:21:48;;;;;;;5.88;3.47;;;19.40;99.90;;;;;;4212299;28;20059;-80
2023/09/26 09:23:50;;;;;;;7.10;3.90;;;19.90;99.90;;;;;;4231963;28;20051;-80
2023/09/26 09:25:51;;;;;;;8.77;4.00;;;20.40;99.90;;;;;;4214491;28;20052;-79
2023/09/26 09:27:52;;;;;;;7.30;3.92;;;20.90;99.90;;;;;;4232328;28;20066;-79
2023/09/26 09:30:09;;;;;;;10.15;4.30;;;21.40;99.90;;;;;;4244149;28;20066;-79
2023/09/26 09:32:10;;;;;;;6.63;4.10;;;21.40;99.90;;;;;;4239484;28;20051;-80
2023/09/26 09:34:11;;;;;;;8.32;3.50;;;21.20;99.90;;;;;;4214007;28;20036;-79
2023/09/26 09:36:13;;;;;;;14.90;4.75;;;20.90;99.90;;;;;;4232000;28;20116;-80
2023/09/26 09:38:17;;;;;;;10.48;4.47;;;20.50;99.90;;;;;;4232035;28;20373;-80
2023/09/26 09:40:19;;;;;;;8.60;4.32;;;20.10;99.90;;;;;;4228648;28;20486;-80
2023/09/26 09:42:22;;;;;;;12.15;4.03;;;19.60;99.90;;;;;;4232307;28;20387;-80
2023/09/26 09:44:23;;;;;;;8.40;3.90;;;19.40;99.90;;;;;;4231404;28;20040;-81
2023/09/26 09:46:25;;;;;;;8.10;3.55;;;19.40;99.90;;;;;;4220278;28;20046;-80
2023/09/26 09:48:28;;;;;;;10.73;4.05;;;19.50;99.90;;;;;;4213279;28;20082;-80
2023/09/26 09:50:32;;;;;;;7.93;3.65;;;19.70;99.90;;;;;;4223197;28;20118;-80
2023/09/26 09:52:34;;;;;;;8.25;4.00;;;19.80;99.90;;;;;;4231738;28;20035;-80
2023/09/26 09:54:37;;;;;;;9.57;4.78;;;19.90;99.90;;;;;;4213060;28;20504;-80
2023/09/26 09:56:39;;;;;;;5.60;3.58;;;20.00;99.90;;;;;;4198210;28;20111;-80
2023/09/26 09:58:44;;;;;;;6.47;3.20;;;20.10;99.90;;;;;;4230970;28;20170;-80
2023/09/26 10:00:45;;;;;;;8.20;3.53;;;20.10;99.90;;;;;;4231861;28;20617;-80
2023/09/26 10:02:46;;;;;;;6.70;3.72;;;20.40;99.90;;;;;;4233774;27;20044;-80
2023/09/26 10:04:48;;;;;;;7.07;3.28;;;20.50;99.90;;;;;;4232248;27;20142;-80
2023/09/26 10:06:49;;;;;;;8.45;3.47;;;20.60;99.90;;;;;;4230969;28;20043;-79
2023/09/26 10:08:50;;;;;;;7.32;3.22;;;20.50;99.90;;;;;;4231455;28;20054;-80
2023/09/26 10:10:51;;;;;;;6.13;2.78;;;20.40;99.90;;;;;;4231316;28;20043;-79
2023/09/26 10:12:52;;;;;;;6.10;3.58;;;20.40;99.90;;;;;;4230206;28;20442;-79
2023/09/26 10:14:56;;;;;;;6.07;2.85;;;20.50;99.90;;;;;;4231321;28;20051;-80
2023/09/26 10:16:57;;;;;;;7.18;3.63;;;20.50;99.90;;;;;;4225749;28;20086;-80
2023/09/26 10:19:00;;;;;;;6.82;3.25;;;20.60;99.90;;;;;;4231129;28;20043;-80
2023/09/26 10:21:01;;;;;;;9.43;3.63;;;20.80;99.90;;;;;;4231494;28;20040;-80
2023/09/26 10:23:11;;;;;;;7.55;2.97;;;20.90;99.90;;;;;;4216885;28;20126;-79
2023/09/26 10:25:19;;;;;;;7.32;3.20;;;21.00;99.90;;;;;;4226072;28;20352;-80
2023/09/26 10:27:33;;;;;;;7.47;2.83;;;21.20;99.90;;;;;;4213552;28;20466;-80
2023/09/26 10:29:35;;;;;;;6.10;2.72;;;21.20;99.90;;;;;;4229765;28;20040;-80